< Typhoon 201802 2018 Season Typhoon 201804 >
Typhoon 201803 (JELAWAT)
General InformationTrack Information on Google MapsDetailed Wind InformationForecast History on Google MapsAccess Analytics MapList of All Images || NewsDisaster Info.WeblogTrackbackTyphoon FrontTwiphoonTyphoon Now!Typhoon ImaginationJMA Disaster Info. XMLResourceGoogle EarthGE AnimationAtom FeedGeoJSON
Detalied Best Track (Time Zone = UTC)
Year Month Day Hour Lat. Long. Pressure (hPa) Wind (kt) Class Image Chart
2018 3 24 18 5.8 143.0 1004 0 2 Image Chart
2018 3 25 00 6.2 141.7 1002 0 2 Image Chart
2018 3 25 06 6.6 140.3 1000 35 3 Image Chart
2018 3 25 12 7.0 139.2 1000 35 3 Image Chart
2018 3 25 18 7.3 138.4 1000 35 3 Image Chart
2018 3 26 00 7.6 137.6 1000 35 3 Image Chart
2018 3 26 06 8.0 136.7 1000 35 3 Image Chart
2018 3 26 12 8.7 135.8 1000 35 3 Image Chart
2018 3 26 18 9.4 135.3 1000 35 3 Image Chart
2018 3 27 00 10.3 135.0 1000 35 3 Image Chart
2018 3 27 06 11.0 134.9 1000 35 3 Image Chart
2018 3 27 12 11.6 134.8 1000 35 3 Image Chart
2018 3 27 18 12.3 134.8 998 40 3 Image Chart
2018 3 28 00 13.0 134.9 994 45 3 Image Chart
2018 3 28 06 13.7 135.0 990 50 4 Image Chart
2018 3 28 12 14.5 135.2 990 50 4 Image Chart
2018 3 28 18 15.3 135.3 985 55 4 Image Chart
2018 3 29 00 15.3 135.3 975 65 5 Image Chart
2018 3 29 06 15.3 135.6 965 70 5 Image Chart
2018 3 29 12 15.3 136.2 955 80 5 Image Chart
2018 3 29 18 15.5 136.8 945 85 5 Image Chart
2018 3 30 00 15.7 137.3 935 95 5 Image Chart
2018 3 30 06 16.2 138.1 915 105 5 Image Chart
2018 3 30 12 16.8 139.0 915 105 5 Image Chart
2018 3 30 18 17.6 139.8 925 100 5 Image Chart
2018 3 31 00 18.2 140.8 955 80 5 Image Chart
2018 3 31 06 18.6 141.7 965 70 5 Image Chart
2018 3 31 12 18.9 142.6 975 65 5 Image Chart
2018 3 31 18 19.1 143.5 992 35 3 Image Chart
2018 4 1 00 19.3 144.4 996 0 2 Image Chart
2018 4 1 06 19.1 145.6 996 0 2 Image Chart
Japan Meteorological Agency Best Track Data | Correction Date : 2018-04-25
< Typhoon 201802 2018 Season Typhoon 201804 >

Help